createdAt,value
2018-05-01T00:01:26.302Z,55.82
2018-05-01T00:03:53.692Z,55.50
2018-05-01T00:06:21.108Z,55.65
2018-05-01T00:08:48.492Z,56.22
2018-05-01T00:11:15.868Z,55.93
2018-05-01T00:13:43.341Z,56.01
2018-05-01T00:16:10.822Z,56.58
2018-05-01T00:18:38.260Z,55.49
2018-05-01T00:21:05.644Z,54.48
2018-05-01T00:23:33.073Z,54.38
2018-05-01T00:26:00.457Z,53.72
2018-05-01T00:28:27.885Z,53.54
2018-05-01T00:30:55.264Z,53.19
2018-05-01T00:33:22.657Z,53.35
2018-05-01T00:35:50.049Z,53.76
2018-05-01T00:38:18.118Z,52.92
2018-05-01T00:40:45.504Z,53.58
2018-05-01T00:43:13.515Z,53.59
2018-05-01T00:45:41.001Z,53.99
2018-05-01T00:48:08.389Z,54.09
2018-05-01T00:50:35.784Z,54.04
2018-05-01T00:53:03.195Z,53.34
2018-05-01T00:55:30.600Z,54.15
2018-05-01T00:57:58.069Z,53.60
2018-05-01T01:00:25.469Z,53.24
2018-05-01T01:02:52.890Z,53.42
2018-05-01T01:05:20.312Z,53.82
2018-05-01T01:07:47.720Z,53.81
2018-05-01T01:10:15.121Z,53.47
2018-05-01T01:12:42.501Z,53.90
2018-05-01T01:15:09.961Z,53.68
2018-05-01T01:17:37.447Z,54.53
2018-05-01T01:20:04.857Z,54.28
2018-05-01T01:22:32.346Z,54.80
2018-05-01T01:24:59.728Z,54.66
2018-05-01T01:27:27.164Z,54.49
2018-05-01T01:29:54.620Z,54.70
2018-05-01T01:32:21.998Z,54.24
2018-05-01T01:34:49.389Z,54.67
2018-05-01T01:37:16.264Z,54.40
2018-05-01T01:39:43.117Z,55.20
2018-05-01T01:44:51.056Z,55.13
2018-05-01T01:47:17.904Z,55.20
2018-05-01T01:49:44.752Z,55.28
2018-05-01T01:52:11.656Z,55.65
2018-05-01T01:54:38.524Z,55.88
2018-05-01T01:57:05.357Z,55.74
2018-05-01T01:59:32.204Z,55.88
2018-05-01T02:01:59.053Z,56.41
2018-05-01T02:04:25.921Z,56.15
2018-05-01T02:06:52.792Z,56.76
2018-05-01T02:09:19.669Z,56.86
2018-05-01T02:11:46.517Z,56.42
2018-05-01T02:14:13.368Z,56.65
2018-05-01T02:16:40.214Z,57.40
2018-05-01T02:19:07.069Z,57.52
2018-05-01T02:21:33.986Z,57.31
2018-05-01T02:24:00.829Z,57.25
2018-05-01T02:26:27.757Z,57.10
2018-05-01T02:28:54.613Z,57.50
2018-05-01T02:31:21.541Z,57.64
2018-05-01T02:33:48.488Z,57.99
2018-05-01T02:36:15.345Z,57.79
2018-05-01T02:38:42.190Z,58.78
2018-05-01T02:41:09.132Z,58.69
2018-05-01T02:43:35.909Z,58.72
2018-05-01T02:46:02.801Z,59.30
2018-05-01T02:48:29.718Z,59.18
2018-05-01T02:50:56.663Z,59.49
2018-05-01T02:53:23.575Z,59.71
2018-05-01T02:55:50.423Z,59.77
2018-05-01T02:58:17.294Z,60.15
2018-05-01T03:00:44.147Z,60.27
2018-05-01T03:03:10.997Z,60.35
2018-05-01T03:05:37.841Z,60.63
2018-05-01T03:08:04.682Z,60.72
2018-05-01T03:10:31.536Z,60.58
2018-05-01T03:12:58.441Z,60.82
2018-05-01T03:15:25.395Z,60.86
2018-05-01T03:17:52.234Z,61.13
2018-05-01T03:20:19.077Z,60.93
2018-05-01T03:22:45.921Z,61.04
2018-05-01T03:25:12.768Z,61.27
2018-05-01T03:27:39.701Z,61.77
2018-05-01T03:30:06.553Z,61.51
2018-05-01T03:32:33.398Z,62.31
2018-05-01T03:35:00.353Z,62.71
2018-05-01T03:37:27.292Z,63.06
2018-05-01T03:39:54.800Z,63.13
2018-05-01T03:42:21.662Z,62.76
2018-05-01T03:44:48.540Z,63.05
2018-05-01T03:47:15.414Z,63.01
2018-05-01T03:49:42.290Z,62.83
2018-05-01T03:52:09.137Z,63.13
2018-05-01T03:54:35.999Z,63.35
2018-05-01T03:57:02.838Z,63.68
2018-05-01T03:59:29.688Z,63.57
2018-05-01T04:01:56.538Z,63.89
2018-05-01T04:04:23.433Z,63.95
2018-05-01T04:06:50.301Z,64.23
2018-05-01T04:09:17.213Z,64.23
2018-05-01T04:11:44.157Z,64.59
2018-05-01T04:14:11.008Z,64.76
2018-05-01T04:16:37.857Z,65.50
2018-05-01T04:19:04.793Z,66.00
2018-05-01T04:21:31.652Z,66.30
2018-05-01T04:23:58.581Z,66.54
2018-05-01T04:26:25.475Z,67.28
2018-05-01T04:28:52.308Z,67.58
2018-05-01T04:31:19.168Z,68.01
2018-05-01T04:33:46.169Z,68.05
2018-05-01T04:36:13.053Z,68.36
2018-05-01T04:38:39.902Z,69.65
2018-05-01T04:41:06.754Z,69.91
2018-05-01T04:43:33.592Z,70.64
2018-05-01T04:46:00.462Z,70.25
2018-05-01T04:48:27.304Z,70.56
2018-05-01T04:50:54.205Z,71.03
2018-05-01T04:53:21.119Z,70.40
2018-05-01T04:55:48.063Z,71.00
2018-05-01T04:58:14.917Z,70.65
2018-05-01T05:00:41.790Z,70.39
2018-05-01T05:03:08.636Z,70.51
2018-05-01T05:05:35.490Z,70.24
2018-05-01T05:08:02.333Z,70.46
2018-05-01T05:10:29.209Z,70.29
2018-05-01T05:12:56.138Z,70.14
2018-05-01T05:15:23.076Z,70.12
2018-05-01T05:17:49.953Z,70.39
2018-05-01T05:20:16.868Z,69.90
2018-05-01T05:22:43.788Z,69.91
2018-05-01T05:25:10.657Z,69.82
2018-05-01T05:27:37.496Z,69.97
2018-05-01T05:30:04.345Z,69.57
2018-05-01T05:32:31.187Z,68.68
2018-05-01T05:34:58.148Z,68.66
2018-05-01T05:37:24.978Z,68.75
2018-05-01T05:39:51.832Z,68.58
2018-05-01T05:42:18.687Z,68.70
2018-05-01T05:44:45.536Z,68.04
2018-05-01T05:47:12.450Z,68.27
2018-05-01T05:49:39.302Z,68.42
2018-05-01T05:52:06.222Z,68.45
2018-05-01T05:54:33.060Z,68.74
2018-05-01T05:56:59.908Z,68.60
2018-05-01T05:59:26.856Z,69.08
2018-05-01T06:01:53.797Z,69.65
2018-05-01T06:04:20.650Z,69.35
2018-05-01T06:06:47.589Z,69.41
2018-05-01T06:09:14.559Z,69.93
2018-05-01T06:11:41.481Z,70.52
2018-05-01T06:14:08.322Z,70.49
2018-05-01T06:16:35.176Z,71.29
2018-05-01T06:19:02.109Z,70.79
2018-05-01T06:21:28.964Z,70.95
2018-05-01T06:23:55.889Z,70.69
2018-05-01T06:26:22.737Z,70.06
2018-05-01T06:28:49.682Z,69.90
2018-05-01T06:31:16.613Z,70.64
2018-05-01T06:33:43.381Z,70.54
2018-05-01T06:36:10.226Z,72.27
2018-05-01T06:38:37.153Z,74.04
2018-05-01T06:41:04.001Z,74.38
2018-05-01T06:43:30.936Z,74.91
2018-05-01T06:45:57.790Z,76.03
2018-05-01T06:48:24.728Z,76.96
2018-05-01T06:50:51.746Z,77.80
2018-05-01T06:53:18.426Z,78.34
2018-05-01T06:55:45.357Z,77.90
2018-05-01T06:58:12.297Z,77.62
2018-05-01T07:00:39.161Z,77.35
2018-05-01T07:03:05.999Z,77.19
2018-05-01T07:05:32.933Z,78.33
2018-05-01T07:07:59.773Z,78.41
2018-05-01T07:10:26.616Z,78.52
2018-05-01T07:12:53.459Z,78.04
2018-05-01T07:15:20.397Z,77.72
2018-05-01T07:17:47.241Z,78.10
2018-05-01T07:20:14.189Z,78.69
2018-05-01T07:22:41.029Z,79.07
2018-05-01T07:25:07.881Z,78.88
2018-05-01T07:27:34.871Z,80.14
2018-05-01T07:30:01.770Z,79.17
2018-05-01T07:32:28.620Z,79.65
2018-05-01T07:34:55.544Z,79.73
2018-05-01T07:37:22.403Z,80.23
2018-05-01T07:39:49.241Z,80.63
2018-05-01T07:42:16.093Z,80.46
2018-05-01T07:44:42.938Z,78.90
2018-05-01T07:47:09.784Z,79.06
2018-05-01T07:49:36.633Z,78.99
2018-05-01T07:52:03.486Z,79.11
2018-05-01T07:54:30.337Z,79.98
2018-05-01T07:56:57.316Z,79.77
2018-05-01T07:59:24.153Z,79.32
2018-05-01T08:01:51.005Z,80.15
2018-05-01T08:04:17.861Z,79.20
2018-05-01T08:06:44.693Z,80.55
2018-05-01T08:09:11.636Z,80.35
2018-05-01T08:11:38.582Z,79.97
2018-05-01T08:14:05.430Z,79.68
2018-05-01T08:16:32.386Z,80.12
2018-05-01T08:18:59.217Z,78.83
2018-05-01T08:21:26.162Z,79.21
2018-05-01T08:23:53.005Z,78.96
2018-05-01T08:26:19.860Z,78.66
2018-05-01T08:28:46.699Z,79.31
2018-05-01T08:31:13.561Z,79.20
2018-05-01T08:33:40.404Z,78.78
2018-05-01T08:36:07.257Z,78.44
2018-05-01T08:38:34.169Z,77.57
2018-05-01T08:41:01.026Z,78.33
2018-05-01T08:43:27.860Z,78.38
2018-05-01T08:45:54.774Z,78.51
2018-05-01T08:48:21.621Z,78.48
2018-05-01T08:50:48.500Z,78.10
2018-05-01T08:53:15.817Z,77.57
2018-05-01T08:55:42.958Z,77.63
2018-05-01T08:58:11.788Z,77.68
2018-05-01T09:00:39.308Z,76.82
2018-05-01T09:03:06.135Z,77.08
2018-05-01T09:05:32.986Z,77.01
2018-05-01T09:07:59.820Z,76.75
2018-05-01T09:10:26.660Z,75.46
2018-05-01T09:12:53.525Z,75.83
2018-05-01T09:15:20.373Z,74.89
2018-05-01T09:17:47.367Z,75.99
2018-05-01T09:20:14.192Z,75.84
2018-05-01T09:22:41.106Z,75.84
2018-05-01T09:25:07.963Z,74.92
2018-05-01T09:27:34.912Z,75.56
2018-05-01T09:30:01.751Z,75.26
2018-05-01T09:32:28.682Z,75.68
2018-05-01T09:34:55.524Z,75.18
2018-05-01T09:37:22.388Z,75.35
2018-05-01T09:39:49.227Z,76.02
2018-05-01T09:42:16.083Z,75.47
2018-05-01T09:44:42.923Z,75.33
2018-05-01T09:47:09.829Z,75.43
2018-05-01T09:49:36.677Z,74.61
2018-05-01T09:52:03.626Z,75.59
2018-05-01T09:54:30.998Z,74.86
2018-05-01T09:56:58.429Z,74.80
2018-05-01T09:59:25.910Z,74.55
2018-05-01T10:01:53.277Z,74.80
2018-05-01T10:04:20.714Z,74.97
2018-05-01T10:06:48.105Z,74.50
2018-05-01T10:09:15.497Z,75.63
2018-05-01T10:11:42.883Z,75.90
2018-05-01T10:14:10.348Z,75.27
2018-05-01T10:16:37.736Z,75.25
2018-05-01T10:19:05.116Z,75.31
2018-05-01T10:21:32.504Z,75.30
2018-05-01T10:23:59.882Z,75.83
2018-05-01T10:26:27.298Z,75.54
2018-05-01T10:28:54.701Z,75.78
2018-05-01T10:31:22.109Z,75.19
2018-05-01T10:33:49.492Z,75.47
2018-05-01T10:36:16.883Z,75.28
2018-05-01T10:38:44.404Z,75.12
2018-05-01T10:41:11.774Z,75.37
2018-05-01T10:43:39.157Z,74.81
2018-05-01T10:46:06.629Z,75.91
2018-05-01T10:48:34.005Z,76.21
2018-05-01T10:51:01.408Z,75.36
2018-05-01T10:53:28.789Z,76.15
2018-05-01T10:55:56.169Z,75.91
2018-05-01T10:58:23.557Z,76.01
2018-05-01T11:00:50.933Z,76.14
2018-05-01T11:03:19.195Z,76.13
2018-05-01T11:05:46.589Z,75.42
2018-05-01T11:08:13.980Z,75.18
2018-05-01T11:10:41.400Z,75.16
2018-05-01T11:13:08.789Z,74.92
2018-05-01T11:15:36.221Z,74.75
2018-05-01T11:18:03.683Z,74.43
2018-05-01T11:20:31.128Z,74.57
2018-05-01T11:22:58.593Z,74.53
2018-05-01T11:25:26.057Z,74.16
2018-05-01T11:27:53.441Z,73.95
2018-05-01T11:30:20.854Z,74.32
2018-05-01T11:32:49.128Z,73.82
2018-05-01T11:35:16.580Z,73.77
2018-05-01T11:37:43.992Z,73.09
2018-05-01T11:40:11.401Z,72.84
2018-05-01T11:42:38.795Z,72.47
2018-05-01T11:45:06.222Z,72.60
2018-05-01T11:47:33.614Z,72.09
2018-05-01T11:50:01.022Z,72.09
2018-05-01T11:52:28.489Z,72.11
2018-05-01T11:54:55.869Z,71.28
2018-05-01T11:57:23.288Z,71.63
2018-05-01T11:59:50.672Z,71.37
2018-05-01T12:02:18.072Z,70.44
2018-05-01T12:04:45.453Z,70.28
2018-05-01T12:07:12.836Z,70.66
2018-05-01T12:09:40.234Z,70.39
2018-05-01T12:12:07.726Z,70.00
2018-05-01T12:14:35.111Z,70.00
2018-05-01T12:17:02.544Z,70.07
2018-05-01T12:19:29.998Z,70.22
2018-05-01T12:21:57.393Z,69.48
2018-05-01T12:24:24.794Z,68.82
2018-05-01T12:26:52.262Z,69.22
2018-05-01T12:29:19.710Z,69.50
2018-05-01T12:31:47.122Z,68.88
2018-05-01T12:34:14.552Z,68.92
2018-05-01T12:36:41.988Z,69.27
2018-05-01T12:39:09.433Z,70.23
2018-05-01T12:41:36.821Z,68.71
2018-05-01T12:44:04.209Z,69.11
2018-05-01T12:46:31.614Z,69.54
2018-05-01T12:48:59.019Z,69.68
2018-05-01T12:51:26.405Z,69.14
2018-05-01T12:53:53.961Z,68.76
2018-05-01T12:56:21.316Z,69.82
2018-05-01T12:58:48.738Z,69.88
2018-05-01T13:01:16.128Z,69.55
2018-05-01T13:03:43.596Z,70.76
2018-05-01T13:06:11.107Z,70.26
2018-05-01T13:08:38.406Z,69.88
2018-05-01T13:11:05.869Z,68.49
2018-05-01T13:13:33.325Z,68.33
2018-05-01T13:16:00.729Z,67.55
2018-05-01T13:18:28.139Z,67.65
2018-05-01T13:20:55.521Z,67.28
2018-05-01T13:23:22.920Z,68.08
2018-05-01T13:25:50.329Z,67.02
2018-05-01T13:28:17.721Z,67.06
2018-05-01T13:30:45.228Z,66.78
2018-05-01T13:33:12.625Z,65.29
2018-05-01T13:35:40.026Z,64.54
2018-05-01T13:38:07.526Z,62.95
2018-05-01T13:40:34.917Z,63.27
2018-05-01T13:43:02.356Z,63.17
2018-05-01T13:45:29.793Z,62.00
2018-05-01T13:47:57.245Z,61.60
2018-05-01T13:50:24.642Z,59.18
2018-05-01T13:52:52.029Z,59.66
2018-05-01T13:55:19.466Z,58.13
2018-05-01T13:57:46.894Z,57.64
2018-05-01T14:00:14.328Z,56.92
2018-05-01T14:02:41.745Z,56.67
2018-05-01T14:05:09.129Z,55.56
2018-05-01T14:07:36.565Z,55.62
2018-05-01T14:10:04.068Z,57.06
2018-05-01T14:12:31.457Z,55.21
2018-05-01T14:14:58.846Z,54.18
2018-05-01T14:17:26.251Z,54.20
2018-05-01T14:19:53.672Z,53.98
2018-05-01T14:22:21.077Z,53.83
2018-05-01T14:24:48.474Z,53.10
2018-05-01T14:27:15.956Z,53.08
2018-05-01T14:29:43.328Z,52.25
2018-05-01T14:32:10.725Z,52.80
2018-05-01T14:34:38.109Z,52.47
2018-05-01T14:37:05.514Z,53.78
2018-05-01T14:39:32.906Z,52.46
2018-05-01T14:42:00.456Z,52.24
2018-05-01T14:44:27.838Z,51.33
2018-05-01T14:46:55.226Z,52.21
2018-05-01T14:49:22.641Z,52.72
2018-05-01T14:51:50.034Z,53.74
2018-05-01T14:54:17.433Z,51.40
2018-05-01T14:56:44.920Z,50.85
2018-05-01T14:59:12.320Z,50.61
2018-05-01T15:01:39.831Z,50.93
2018-05-01T15:04:07.142Z,48.08
2018-05-01T15:06:34.840Z,48.76
2018-05-01T15:09:02.354Z,48.08
2018-05-01T15:11:29.705Z,47.63
2018-05-01T15:13:57.101Z,49.36
2018-05-01T15:16:24.485Z,47.99
2018-05-01T15:18:51.884Z,47.64
2018-05-01T15:21:19.393Z,47.54
2018-05-01T15:23:46.832Z,47.90
2018-05-01T15:26:14.293Z,48.40
2018-05-01T15:28:41.688Z,48.15
2018-05-01T15:31:09.192Z,49.59
2018-05-01T15:33:36.521Z,49.35
2018-05-01T15:36:04.018Z,47.95
2018-05-01T15:38:31.416Z,46.96
2018-05-01T15:40:58.833Z,47.72
2018-05-01T15:43:26.285Z,48.08
2018-05-01T15:45:53.679Z,47.50
2018-05-01T15:48:21.072Z,47.07
2018-05-01T15:50:48.563Z,46.60
2018-05-01T15:53:16.008Z,47.42
2018-05-01T15:55:43.401Z,46.34
2018-05-01T15:58:10.824Z,46.48
2018-05-01T16:00:38.385Z,47.52
2018-05-01T16:03:05.708Z,45.34
2018-05-01T16:05:33.101Z,44.88
2018-05-01T16:08:00.485Z,45.88
2018-05-01T16:10:27.887Z,45.21
2018-05-01T16:12:55.304Z,45.79
2018-05-01T16:15:22.713Z,45.98
2018-05-01T16:17:50.109Z,45.94
2018-05-01T16:20:17.503Z,46.56
2018-05-01T16:22:44.909Z,46.70
2018-05-01T16:25:12.324Z,46.66
2018-05-01T16:27:39.712Z,46.09
2018-05-01T16:30:07.114Z,46.81
2018-05-01T16:32:34.503Z,46.69
2018-05-01T16:35:01.993Z,46.96
2018-05-01T16:37:29.378Z,47.83
2018-05-01T16:39:56.773Z,48.35
2018-05-01T16:42:24.165Z,46.89
2018-05-01T16:44:51.585Z,47.03
2018-05-01T16:47:18.980Z,47.01
2018-05-01T16:49:46.392Z,46.78
2018-05-01T16:52:13.785Z,46.56
2018-05-01T16:54:41.184Z,47.37
2018-05-01T16:57:08.574Z,46.23
2018-05-01T16:59:36.119Z,45.24
2018-05-01T17:02:03.683Z,46.06
2018-05-01T17:04:31.238Z,46.63
2018-05-01T17:06:58.704Z,46.91
2018-05-01T17:09:26.207Z,46.51
2018-05-01T17:11:53.801Z,46.63
2018-05-01T17:14:21.413Z,46.50
2018-05-01T17:16:48.822Z,46.92
2018-05-01T17:19:16.217Z,45.58
2018-05-01T17:21:43.628Z,46.92
2018-05-01T17:24:11.131Z,47.26
2018-05-01T17:26:38.512Z,47.23
2018-05-01T17:29:06.042Z,47.64
2018-05-01T17:31:33.394Z,47.20
2018-05-01T17:34:00.817Z,47.88
2018-05-01T17:36:28.237Z,48.07
2018-05-01T17:38:55.644Z,47.59
2018-05-01T17:41:23.041Z,48.65
2018-05-01T17:43:50.447Z,48.02
2018-05-01T17:46:17.903Z,47.76
2018-05-01T17:48:45.341Z,47.95
2018-05-01T17:51:12.693Z,47.41
2018-05-01T17:53:40.089Z,47.82
2018-05-01T17:56:07.492Z,47.95
2018-05-01T17:58:34.912Z,47.53
2018-05-01T18:01:02.317Z,47.88
2018-05-01T18:03:29.795Z,47.30
2018-05-01T18:05:57.210Z,47.48
2018-05-01T18:08:24.620Z,47.79
2018-05-01T18:10:52.012Z,47.52
2018-05-01T18:13:19.428Z,47.47
2018-05-01T18:15:46.821Z,47.11
2018-05-01T18:18:14.230Z,46.68
2018-05-01T18:20:41.683Z,46.32
2018-05-01T18:23:09.060Z,46.19
2018-05-01T18:25:36.464Z,45.62
2018-05-01T18:28:03.844Z,44.98
2018-05-01T18:30:31.248Z,43.60
2018-05-01T18:32:58.630Z,44.43
2018-05-01T18:35:26.033Z,44.63
2018-05-01T18:37:53.413Z,44.83
2018-05-01T18:40:20.824Z,43.08
2018-05-01T18:42:48.213Z,43.84
2018-05-01T18:45:15.636Z,43.82
2018-05-01T18:47:43.023Z,44.69
2018-05-01T18:50:10.419Z,44.79
2018-05-01T18:52:37.804Z,44.59
2018-05-01T18:55:05.198Z,43.99
2018-05-01T18:57:32.595Z,44.02
2018-05-01T19:00:00.070Z,43.89
2018-05-01T19:02:27.469Z,43.65
2018-05-01T19:04:54.873Z,44.02
2018-05-01T19:07:22.265Z,43.90
2018-05-01T19:09:49.673Z,44.30
2018-05-01T19:12:17.084Z,44.42
2018-05-01T19:14:44.478Z,44.59
2018-05-01T19:17:11.861Z,44.03
2018-05-01T19:19:39.331Z,45.24
2018-05-01T19:22:06.733Z,45.25
2018-05-01T19:24:34.407Z,45.60
2018-05-01T19:27:01.787Z,45.92
2018-05-01T19:29:29.206Z,46.14
2018-05-01T19:31:56.601Z,46.50
2018-05-01T19:34:24.098Z,48.46
2018-05-01T19:36:51.396Z,48.32
2018-05-01T19:39:18.841Z,48.10
2018-05-01T19:41:46.288Z,48.21
2018-05-01T19:44:13.682Z,48.17
2018-05-01T19:46:41.094Z,48.59
2018-05-01T19:49:08.773Z,48.51
2018-05-01T19:51:36.221Z,48.75
2018-05-01T19:54:03.678Z,48.21
2018-05-01T19:56:31.076Z,48.24
2018-05-01T19:58:58.493Z,48.61
2018-05-01T20:01:25.937Z,47.93
2018-05-01T20:03:53.358Z,48.42
2018-05-01T20:06:20.758Z,48.77
2018-05-01T20:08:48.260Z,48.99
2018-05-01T20:11:15.561Z,48.86
2018-05-01T20:13:42.950Z,49.27
2018-05-01T20:16:10.338Z,49.78
2018-05-01T20:18:37.733Z,49.88
2018-05-01T20:21:05.137Z,50.34
2018-05-01T20:23:32.517Z,49.96
2018-05-01T20:25:59.917Z,50.72
2018-05-01T20:28:27.301Z,50.54
2018-05-01T20:30:54.704Z,50.75
2018-05-01T20:33:22.097Z,50.50
2018-05-01T20:35:49.507Z,50.48
2018-05-01T20:38:16.867Z,50.48
2018-05-01T20:40:44.353Z,51.30
2018-05-01T20:43:11.737Z,52.06
2018-05-01T20:45:39.149Z,52.54
2018-05-01T20:48:06.536Z,53.13
2018-05-01T20:50:33.917Z,53.35
2018-05-01T20:53:01.338Z,53.07
2018-05-01T20:55:28.733Z,52.92
2018-05-01T20:57:56.126Z,52.96
2018-05-01T21:00:23.517Z,53.05
2018-05-01T21:02:51.120Z,53.00
2018-05-01T21:05:18.605Z,53.63
2018-05-01T21:07:46.013Z,54.04
2018-05-01T21:10:13.404Z,54.21
2018-05-01T21:12:40.809Z,55.21
2018-05-01T21:15:08.326Z,55.25
2018-05-01T21:17:35.733Z,55.47
2018-05-01T21:20:03.116Z,55.48
2018-05-01T21:22:30.509Z,55.47
2018-05-01T21:24:57.910Z,55.86
2018-05-01T21:27:25.305Z,56.20
2018-05-01T21:29:52.713Z,57.26
2018-05-01T21:32:20.097Z,57.08
2018-05-01T21:34:47.578Z,57.14
2018-05-01T21:37:15.052Z,58.04
2018-05-01T21:39:42.445Z,58.61
2018-05-01T21:42:09.861Z,58.94
2018-05-01T21:44:37.273Z,59.14
2018-05-01T21:47:04.679Z,59.95
2018-05-01T21:49:32.062Z,60.37
2018-05-01T21:51:59.482Z,60.63
2018-05-01T21:54:26.872Z,60.50
2018-05-01T21:56:54.261Z,61.09
2018-05-01T21:59:21.741Z,61.91
2018-05-01T22:01:49.147Z,62.50
2018-05-01T22:04:16.672Z,62.56
2018-05-01T22:06:44.029Z,62.78
2018-05-01T22:09:11.418Z,62.85
2018-05-01T22:11:38.808Z,63.02
2018-05-01T22:14:06.265Z,63.50
2018-05-01T22:16:33.655Z,64.74
2018-05-01T22:19:01.049Z,66.02
2018-05-01T22:21:28.447Z,65.33
2018-05-01T22:23:55.850Z,64.63
2018-05-01T22:26:23.240Z,64.52
2018-05-01T22:28:50.715Z,63.83
2018-05-01T22:31:18.097Z,63.48
2018-05-01T22:33:45.502Z,63.28
2018-05-01T22:36:12.889Z,63.33
2018-05-01T22:38:40.305Z,63.82
2018-05-01T22:41:07.725Z,64.76
2018-05-01T22:43:35.105Z,65.41
2018-05-01T22:46:02.513Z,64.81
2018-05-01T22:48:29.903Z,64.36
2018-05-01T22:50:57.289Z,64.14
2018-05-01T22:53:24.748Z,64.58
2018-05-01T22:55:52.158Z,65.55
2018-05-01T22:58:19.544Z,66.21
2018-05-01T23:00:46.949Z,66.47
2018-05-01T23:03:14.329Z,67.14
2018-05-01T23:05:41.741Z,66.60
2018-05-01T23:08:09.120Z,66.52
2018-05-01T23:10:36.518Z,67.25
2018-05-01T23:13:03.918Z,67.57
2018-05-01T23:15:31.306Z,66.66
2018-05-01T23:17:58.765Z,66.59
2018-05-01T23:20:26.157Z,67.56
2018-05-01T23:22:53.555Z,69.89
2018-05-01T23:25:20.978Z,70.47
2018-05-01T23:27:48.361Z,69.97
2018-05-01T23:30:15.777Z,69.88
2018-05-01T23:32:43.188Z,70.06
2018-05-01T23:35:10.601Z,69.61
2018-05-01T23:37:37.981Z,69.10
2018-05-01T23:40:05.361Z,68.76
2018-05-01T23:42:32.837Z,68.48
2018-05-01T23:45:00.281Z,68.26
2018-05-01T23:47:27.681Z,68.72
2018-05-01T23:49:55.061Z,68.43
2018-05-01T23:52:22.449Z,68.98
2018-05-01T23:54:49.908Z,69.56
2018-05-01T23:57:17.297Z,69.48
2018-05-01T23:59:44.684Z,69.15
